DW5978 Whyalla SA AU current weather conditions

sailwx.info

Wind from 235 at 3 knots gusting 8

Air temperature 17.8° C
Dewpoint 7.2° C

Last reported at 2015-Jul-06 04:35 UTC.
Time now 2015-Jul-07 00:19 UTC

Location: S 33°01' E 137°32'.
View on Google Maps.

See reports from other nearby stations

  
Tides and Currents Weather Stations Pressure Air Temp Water Temp Dewpoint Dewpoint Depression Visibility Wind Speed Wind Dir Waves Ship Positions
date/time (UTC)wind fromknots sea level pressurealtimeterstation pressurevisibilityair tempwater tempwave heightnotes
2015-Jul-06 04:35 235 3 gusting 8 17.8
2015-Jul-06 04:20 199 5 gusting 10 17.2
2015-Jul-06 04:05 228 6 gusting 12 17.2
2015-Jul-06 03:50 243 5 gusting 13 17.2
2015-Jul-06 03:35 215 6 gusting 11 17.2
2015-Jul-06 03:20 222 6 gusting 12 17.2
2015-Jul-06 03:05 246 3 gusting 7 17.2
2015-Jul-06 02:50 252 2 gusting 8 16.7
2015-Jul-06 02:35 235 5 gusting 9 16.7
2015-Jul-06 02:20 252 6 gusting 10 16.7
2015-Jul-06 02:05 281 1 gusting 6 15.0
2015-Jul-06 01:50 267 3 gusting 7 14.4
2015-Jul-06 01:35 302 4 gusting 6 14.4
2015-Jul-06 01:20 300 4 gusting 7 13.9
2015-Jul-06 01:05 330 3 gusting 6 13.9
2015-Jul-06 00:50 307 4 gusting 6 13.3
2015-Jul-06 00:35 291 5 gusting 8 12.8
2015-Jul-06 00:20 288 4 gusting 7 12.8
2015-Jul-06 00:05 293 5 gusting 7 12.8
2015-Jul-05 23:50 302 5 gusting 8 12.8
2015-Jul-05 23:35 326 4 gusting 7 11.7
2015-Jul-05 23:20 311 5 gusting 7 11.1
2015-Jul-05 23:05 325 4 gusting 8 10.6
2015-Jul-05 22:50 325 5 gusting 8 10.0
2015-Jul-05 22:35 297 5 gusting 8 9.4
2015-Jul-05 22:20
2015-Jul-05 22:04
2015-Jul-05 21:49
2015-Jul-05 21:34
2015-Jul-05 21:19
2015-Jul-05 21:04
2015-Jul-05 20:49
2015-Jul-05 20:34
2015-Jul-05 20:19
2015-Jul-05 20:04
2015-Jul-05 19:49
2015-Jul-05 19:34
2015-Jul-05 19:19
2015-Jul-05 19:04
2015-Jul-05 18:49 319 5 gusting 9 10.0
2015-Jul-05 18:34 326 6 gusting 9 10.6
2015-Jul-05 18:18 340 4 gusting 8 10.6
2015-Jul-05 18:03 315 4 gusting 8 10.6
2015-Jul-05 17:48 315 6 gusting 9 10.6
2015-Jul-05 17:33 321 5 gusting 9 10.6
2015-Jul-05 17:18 330 5 gusting 9 10.6
2015-Jul-05 17:03 333 6 gusting 10 10.6
2015-Jul-05 16:48 344 6 gusting 10 10.6
2015-Jul-05 16:33 302 6 gusting 9 11.1
2015-Jul-05 16:18 333 4 gusting 7 11.1
2015-Jul-05 16:03 343 5 gusting 10 11.7
2015-Jul-05 15:48 325 2 gusting 5 11.1
2015-Jul-05 15:33 319 2 gusting 5 11.7
2015-Jul-05 15:18 318 4 gusting 10 11.7
2015-Jul-05 15:03 336 6 gusting 11 11.7
2015-Jul-05 14:48 358 7 gusting 14 12.2
2015-Jul-05 14:33 359 8 gusting 12 12.2
2015-Jul-05 14:18 344 9 gusting 13 12.2
2015-Jul-05 14:03 330 8 gusting 13 12.2
2015-Jul-05 13:48 354 9 gusting 14 12.2
2015-Jul-05 13:33 336 10 gusting 14 12.2
2015-Jul-05 13:18 355 7 gusting 12 12.2
2015-Jul-05 13:03 008 5 gusting 9 12.8
2015-Jul-05 12:48 033 7 gusting 13 13.3
2015-Jul-05 12:34 327 7 gusting 13 13.3
2015-Jul-05 12:18 352 10 gusting 14 13.3
2015-Jul-05 12:03 350 6 gusting 11 12.8
2015-Jul-05 11:48 342 7 gusting 10 12.2
2015-Jul-05 11:33 004 6 gusting 8 12.2
2015-Jul-05 11:18 348 6 gusting 10 12.2
2015-Jul-05 11:03 343 6 gusting 8 12.2
2015-Jul-05 10:48 342 4 gusting 7 12.2
2015-Jul-05 10:33 353 5 gusting 9 12.8
2015-Jul-05 10:18 329 6 gusting 9 12.8
2015-Jul-05 10:03 330 5 gusting 6 12.8
2015-Jul-05 09:47 343 4 gusting 6 12.8
2015-Jul-05 09:32 342 3 gusting 5 12.8
2015-Jul-05 09:17 336 3 gusting 5 12.8
2015-Jul-05 09:02 333 3 gusting 5 12.8
2015-Jul-05 08:47 333 3 gusting 6 13.3
2015-Jul-05 08:32 342 3 gusting 5 13.3
2015-Jul-05 08:17 345 2 gusting 4 14.4
2015-Jul-05 08:02 359 1 gusting 3 15.6
2015-Jul-05 07:47 330 2 gusting 6 16.7
2015-Jul-05 07:32 330 4 gusting 8 17.2
2015-Jul-05 07:17 326 3 gusting 8 17.8
2015-Jul-05 07:02 307 7 gusting 11 17.8
2015-Jul-05 06:47 333 5 gusting 13 18.3
2015-Jul-05 06:32 345 5 gusting 13 18.3
2015-Jul-05 06:17 319 6 gusting 13 18.3
2015-Jul-05 06:02 321 9 gusting 13 18.3
2015-Jul-05 05:47 318 6 gusting 13 18.3
2015-Jul-05 05:32 283 8 gusting 13 18.3
2015-Jul-05 05:17 288 9 gusting 14 17.8
2015-Jul-05 05:02 291 8 gusting 13 17.8
2015-Jul-05 04:47 305 8 gusting 14 17.8
2015-Jul-05 04:32 297 9 gusting 15 17.8
2015-Jul-05 04:17 319 6 gusting 14 17.8
2015-Jul-05 04:02 294 8 gusting 14 17.8
2015-Jul-05 03:47 311 7 gusting 14 17.8
2015-Jul-05 03:32 309 8 gusting 14 17.8
2015-Jul-05 03:17 304 5 gusting 14 17.2
2015-Jul-05 03:02 321 6 gusting 13 16.7
2015-Jul-05 02:47 325 6 gusting 12 16.7
2015-Jul-05 02:32 288 9 gusting 15 16.7
2015-Jul-05 02:17 297 7 gusting 13 16.1
2015-Jul-05 02:02 285 8 gusting 13 16.1
2015-Jul-05 01:46 304 6 gusting 12 15.6
2015-Jul-05 01:31 333 6 gusting 13 15.6
2015-Jul-05 01:16 318 6 gusting 11 15.6
2015-Jul-05 01:01 316 5 gusting 10 15.0
2015-Jul-05 00:46 321 5 gusting 9 14.4
2015-Jul-05 00:31 343 6 gusting 10 13.3
2015-Jul-05 00:16 349 5 gusting 9 12.8
2015-Jul-05 00:01 314 4 gusting 9 12.2